sensor_id;sensor_type;location;lat;lon;timestamp;pressure;altitude;pressure_sealevel;temperature;humidity
59443;BME280;45247;47.466;19.004;2023-04-08T00:00:25;100103.63;;;2.66;100.00
59443;BME280;45247;47.466;19.004;2023-04-08T00:02:53;100107.88;;;2.70;100.00
59443;BME280;45247;47.466;19.004;2023-04-08T00:05:23;100108.69;;;2.72;100.00
59443;BME280;45247;47.466;19.004;2023-04-08T00:07:51;100101.78;;;2.69;100.00
59443;BME280;45247;47.466;19.004;2023-04-08T00:10:19;100106.13;;;2.69;100.00
59443;BME280;45247;47.466;19.004;2023-04-08T00:12:48;100104.34;;;2.71;100.00
59443;BME280;45247;47.466;19.004;2023-04-08T00:15:16;100114.06;;;2.64;100.00
59443;BME280;45247;47.466;19.004;2023-04-08T00:17:44;100113.16;;;2.65;100.00
59443;BME280;45247;47.466;19.004;2023-04-08T00:20:12;100115.75;;;2.65;100.00
59443;BME280;45247;47.466;19.004;2023-04-08T00:22:42;100111.44;;;2.66;100.00
59443;BME280;45247;47.466;19.004;2023-04-08T00:25:10;100109.59;;;2.69;100.00
59443;BME280;45247;47.466;19.004;2023-04-08T00:27:38;100110.50;;;2.68;100.00
59443;BME280;45247;47.466;19.004;2023-04-08T00:30:07;100110.50;;;2.68;100.00
59443;BME280;45247;47.466;19.004;2023-04-08T00:32:35;100113.16;;;2.67;100.00
59443;BME280;45247;47.466;19.004;2023-04-08T00:35:04;100108.75;;;2.69;100.00
59443;BME280;45247;47.466;19.004;2023-04-08T00:37:33;100108.75;;;2.69;100.00
59443;BME280;45247;47.466;19.004;2023-04-08T00:40:03;100103.63;;;2.66;100.00
59443;BME280;45247;47.466;19.004;2023-04-08T00:42:31;100105.44;;;2.62;100.00
59443;BME280;45247;47.466;19.004;2023-04-08T00:44:59;100110.72;;;2.59;100.00
59443;BME280;45247;47.466;19.004;2023-04-08T00:47:27;100110.75;;;2.58;100.00
59443;BME280;45247;47.466;19.004;2023-04-08T00:49:58;100110.00;;;2.53;100.00
59443;BME280;45247;47.466;19.004;2023-04-08T00:52:26;100111.78;;;2.50;100.00
59443;BME280;45247;47.466;19.004;2023-04-08T00:54:55;100121.19;;;2.56;100.00
59443;BME280;45247;47.466;19.004;2023-04-08T00:57:24;100119.50;;;2.55;100.00
59443;BME280;45247;47.466;19.004;2023-04-08T00:59:52;100115.97;;;2.58;100.00
59443;BME280;45247;47.466;19.004;2023-04-08T01:02:27;100115.06;;;2.59;100.00
59443;BME280;45247;47.466;19.004;2023-04-08T01:05:02;100114.16;;;2.60;100.00
59443;BME280;45247;47.466;19.004;2023-04-08T01:07:32;100117.72;;;2.57;100.00
59443;BME280;45247;47.466;19.004;2023-04-08T01:10:02;100112.56;;;2.54;100.00
59443;BME280;45247;47.466;19.004;2023-04-08T01:12:51;100108.22;;;2.55;100.00
59443;BME280;45247;47.466;19.004;2023-04-08T01:15:21;100114.34;;;2.54;100.00
59443;BME280;45247;47.466;19.004;2023-04-08T01:17:52;100113.47;;;2.53;100.00
59443;BME280;45247;47.466;19.004;2023-04-08T01:20:24;100111.63;;;2.57;100.00
59443;BME280;45247;47.466;19.004;2023-04-08T01:23:02;100103.84;;;2.55;100.00
59443;BME280;45247;47.466;19.004;2023-04-08T01:25:36;100116.94;;;2.54;100.00
59443;BME280;45247;47.466;19.004;2023-04-08T01:28:09;100121.31;;;2.51;100.00
59443;BME280;45247;47.466;19.004;2023-04-08T01:30:39;100117.78;;;2.54;100.00
59443;BME280;45247;47.466;19.004;2023-04-08T01:33:11;100116.09;;;2.53;100.00
59443;BME280;45247;47.466;19.004;2023-04-08T01:35:40;100111.72;;;2.54;100.00
59443;BME280;45247;47.466;19.004;2023-04-08T01:38:13;100115.06;;;2.59;100.00
59443;BME280;45247;47.466;19.004;2023-04-08T01:40:42;100119.44;;;2.57;100.00
59443;BME280;45247;47.466;19.004;2023-04-08T01:43:14;100116.09;;;2.51;100.00
59443;BME280;45247;47.466;19.004;2023-04-08T01:45:44;100108.22;;;2.55;100.00
59443;BME280;45247;47.466;19.004;2023-04-08T01:48:13;100116.94;;;2.54;100.00
59443;BME280;45247;47.466;19.004;2023-04-08T01:50:43;100114.28;;;2.55;100.00
59443;BME280;45247;47.466;19.004;2023-04-08T01:53:11;100108.22;;;2.55;100.00
59443;BME280;45247;47.466;19.004;2023-04-08T01:55:40;100109.91;;;2.56;100.00
59443;BME280;45247;47.466;19.004;2023-04-08T01:58:11;100102.84;;;2.61;100.00
59443;BME280;45247;47.466;19.004;2023-04-08T02:00:44;100106.34;;;2.60;100.00
59443;BME280;45247;47.466;19.004;2023-04-08T02:03:13;100115.94;;;2.59;100.00
59443;BME280;45247;47.466;19.004;2023-04-08T02:05:44;100104.78;;;2.53;100.00
59443;BME280;45247;47.466;19.004;2023-04-08T02:08:12;100104.88;;;2.49;100.00
59443;BME280;45247;47.466;19.004;2023-04-08T02:10:40;100112.75;;;2.46;100.00
59443;BME280;45247;47.466;19.004;2023-04-08T02:13:09;100111.28;;;2.35;100.00
59443;BME280;45247;47.466;19.004;2023-04-08T02:15:37;100102.66;;;2.33;100.00
59443;BME280;45247;47.466;19.004;2023-04-08T02:18:13;100100.91;;;2.33;100.00
59443;BME280;45247;47.466;19.004;2023-04-08T02:20:47;100098.34;;;2.32;100.00
59443;BME280;45247;47.466;19.004;2023-04-08T02:23:21;100103.56;;;2.30;100.00
59443;BME280;45247;47.466;19.004;2023-04-08T02:25:52;100092.41;;;2.25;100.00
59443;BME280;45247;47.466;19.004;2023-04-08T02:28:22;100107.06;;;2.29;100.00
59443;BME280;45247;47.466;19.004;2023-04-08T02:30:53;100105.25;;;2.31;100.00
59443;BME280;45247;47.466;19.004;2023-04-08T02:33:24;100108.66;;;2.35;100.00
59443;BME280;45247;47.466;19.004;2023-04-08T02:35:53;100105.19;;;2.36;100.00
59443;BME280;45247;47.466;19.004;2023-04-08T02:38:22;100105.19;;;2.36;100.00
59443;BME280;45247;47.466;19.004;2023-04-08T02:40:55;100100.06;;;2.31;100.00
59443;BME280;45247;47.466;19.004;2023-04-08T02:43:23;100099.94;;;2.37;100.00
59443;BME280;45247;47.466;19.004;2023-04-08T02:45:57;100098.97;;;2.41;100.00
59443;BME280;45247;47.466;19.004;2023-04-08T02:48:31;100111.25;;;2.36;100.00
59443;BME280;45247;47.466;19.004;2023-04-08T02:50:59;100095.75;;;2.32;100.00
59443;BME280;45247;47.466;19.004;2023-04-08T02:53:27;100103.44;;;2.36;100.00
59443;BME280;45247;47.466;19.004;2023-04-08T02:55:56;100105.16;;;2.37;100.00
59443;BME280;45247;47.466;19.004;2023-04-08T02:58:24;100103.34;;;2.39;100.00
59443;BME280;45247;47.466;19.004;2023-04-08T03:00:52;100106.00;;;2.38;100.00
59443;BME280;45247;47.466;19.004;2023-04-08T03:03:20;100105.16;;;2.37;100.00
59443;BME280;45247;47.466;19.004;2023-04-08T03:05:54;100112.13;;;2.35;100.00
59443;BME280;45247;47.466;19.004;2023-04-08T03:08:22;100106.84;;;2.38;100.00
59443;BME280;45247;47.466;19.004;2023-04-08T03:10:51;100108.53;;;2.41;100.00
59443;BME280;45247;47.466;19.004;2023-04-08T03:13:19;100112.06;;;2.38;100.00
59443;BME280;45247;47.466;19.004;2023-04-08T03:15:47;100105.94;;;2.39;100.00
59443;BME280;45247;47.466;19.004;2023-04-08T03:18:15;100106.81;;;2.40;100.00
59443;BME280;45247;47.466;19.004;2023-04-08T03:20:44;100112.84;;;2.42;100.00
59443;BME280;45247;47.466;19.004;2023-04-08T03:23:13;100115.41;;;2.43;100.00
59443;BME280;45247;47.466;19.004;2023-04-08T03:25:42;100107.59;;;2.45;100.00
59443;BME280;45247;47.466;19.004;2023-04-08T03:28:10;100117.16;;;2.44;100.00
59443;BME280;45247;47.466;19.004;2023-04-08T03:30:38;100115.34;;;2.46;100.00
59443;BME280;45247;47.466;19.004;2023-04-08T03:33:06;100123.16;;;2.46;100.00
59443;BME280;45247;47.466;19.004;2023-04-08T03:35:34;100115.41;;;2.45;100.00
59443;BME280;45247;47.466;19.004;2023-04-08T03:38:03;100124.06;;;2.45;100.00
59443;BME280;45247;47.466;19.004;2023-04-08T03:40:32;100115.34;;;2.46;100.00
59443;BME280;45247;47.466;19.004;2023-04-08T03:43:00;100117.22;;;2.41;100.00
59443;BME280;45247;47.466;19.004;2023-04-08T03:45:28;100128.44;;;2.45;100.00
59443;BME280;45247;47.466;19.004;2023-04-08T03:47:56;100128.53;;;2.40;100.00
59443;BME280;45247;47.466;19.004;2023-04-08T03:50:25;100127.63;;;2.41;100.00
59443;BME280;45247;47.466;19.004;2023-04-08T03:52:53;100131.94;;;2.42;100.00
59443;BME280;45247;47.466;19.004;2023-04-08T03:55:21;100135.47;;;2.40;100.00
59443;BME280;45247;47.466;19.004;2023-04-08T03:57:51;100137.25;;;2.38;100.00
59443;BME280;45247;47.466;19.004;2023-04-08T04:00:19;100138.13;;;2.38;100.00
59443;BME280;45247;47.466;19.004;2023-04-08T04:02:47;100140.66;;;2.41;100.00
59443;BME280;45247;47.466;19.004;2023-04-08T04:05:15;100142.31;;;2.44;100.00
59443;BME280;45247;47.466;19.004;2023-04-08T04:07:43;100141.63;;;2.37;100.00
59443;BME280;45247;47.466;19.004;2023-04-08T04:10:11;100144.19;;;2.39;100.00
59443;BME280;45247;47.466;19.004;2023-04-08T04:12:39;100149.44;;;2.37;100.00
59443;BME280;45247;47.466;19.004;2023-04-08T04:15:10;100149.44;;;2.37;100.00
59443;BME280;45247;47.466;19.004;2023-04-08T04:17:38;100151.09;;;2.40;100.00
59443;BME280;45247;47.466;19.004;2023-04-08T04:20:07;100151.13;;;2.38;100.00
59443;BME280;45247;47.466;19.004;2023-04-08T04:22:36;100158.00;;;2.42;100.00
59443;BME280;45247;47.466;19.004;2023-04-08T04:25:05;100159.69;;;2.45;100.00
59443;BME280;45247;47.466;19.004;2023-04-08T04:27:33;100153.53;;;2.47;100.00
59443;BME280;45247;47.466;19.004;2023-04-08T04:30:02;100156.09;;;2.50;100.00
59443;BME280;45247;47.466;19.004;2023-04-08T04:32:32;100157.03;;;2.46;100.00
59443;BME280;45247;47.466;19.004;2023-04-08T04:35:01;100161.28;;;2.50;100.00
59443;BME280;45247;47.466;19.004;2023-04-08T04:37:29;100158.69;;;2.50;100.00
59443;BME280;45247;47.466;19.004;2023-04-08T04:39:57;100163.91;;;2.50;100.00
59443;BME280;45247;47.466;19.004;2023-04-08T04:42:25;100155.22;;;2.50;100.00
59443;BME280;45247;47.466;19.004;2023-04-08T04:44:53;100161.34;;;2.47;100.00
59443;BME280;45247;47.466;19.004;2023-04-08T04:47:21;100161.34;;;2.49;100.00
59443;BME280;45247;47.466;19.004;2023-04-08T04:49:51;100163.09;;;2.47;100.00
59443;BME280;45247;47.466;19.004;2023-04-08T04:52:19;100166.72;;;2.41;100.00
59443;BME280;45247;47.466;19.004;2023-04-08T04:54:47;100167.53;;;2.43;100.00
59443;BME280;45247;47.466;19.004;2023-04-08T04:57:18;100164.91;;;2.45;100.00
59443;BME280;45247;47.466;19.004;2023-04-08T04:59:46;100159.00;;;2.37;100.00
59443;BME280;45247;47.466;19.004;2023-04-08T05:02:14;100167.41;;;2.49;100.00
59443;BME280;45247;47.466;19.004;2023-04-08T05:04:42;100169.22;;;2.46;100.00
59443;BME280;45247;47.466;19.004;2023-04-08T05:07:12;100173.53;;;2.47;100.00
59443;BME280;45247;47.466;19.004;2023-04-08T05:09:40;100171.88;;;2.44;100.00
59443;BME280;45247;47.466;19.004;2023-04-08T05:12:08;100169.28;;;2.43;100.00
59443;BME280;45247;47.466;19.004;2023-04-08T05:14:36;100177.88;;;2.46;100.00
59443;BME280;45247;47.466;19.004;2023-04-08T05:17:05;100177.88;;;2.46;100.00
59443;BME280;45247;47.466;19.004;2023-04-08T05:19:33;100175.28;;;2.46;100.00
59443;BME280;45247;47.466;19.004;2023-04-08T05:22:01;100177.94;;;2.43;100.00
59443;BME280;45247;47.466;19.004;2023-04-08T05:24:30;100183.13;;;2.45;100.00
59443;BME280;45247;47.466;19.004;2023-04-08T05:26:58;100191.00;;;2.42;100.00
59443;BME280;45247;47.466;19.004;2023-04-08T05:29:27;100189.19;;;2.45;100.00
59443;BME280;45247;47.466;19.004;2023-04-08T05:31:55;100193.41;;;2.51;100.00
59443;BME280;45247;47.466;19.004;2023-04-08T05:34:23;100196.91;;;2.50;100.00
59443;BME280;45247;47.466;19.004;2023-04-08T05:36:51;100192.50;;;2.52;100.00
59443;BME280;45247;47.466;19.004;2023-04-08T05:39:20;100195.91;;;2.56;100.00
59443;BME280;45247;47.466;19.004;2023-04-08T05:41:49;100194.91;;;2.63;100.00
59443;BME280;45247;47.466;19.004;2023-04-08T05:44:17;100200.09;;;2.63;100.00
59443;BME280;45247;47.466;19.004;2023-04-08T05:46:45;100204.47;;;2.61;100.00
59443;BME280;45247;47.466;19.004;2023-04-08T05:49:14;100197.63;;;2.57;100.00
59443;BME280;45247;47.466;19.004;2023-04-08T05:51:42;100210.59;;;2.60;100.00
59443;BME280;45247;47.466;19.004;2023-04-08T05:54:11;100201.88;;;2.61;100.00
59443;BME280;45247;47.466;19.004;2023-04-08T05:56:39;100201.81;;;2.64;100.00
59443;BME280;45247;47.466;19.004;2023-04-08T05:59:08;100208.63;;;2.71;100.00
59443;BME280;45247;47.466;19.004;2023-04-08T06:01:37;100211.31;;;2.66;100.00
59443;BME280;45247;47.466;19.004;2023-04-08T06:04:05;100213.94;;;2.65;100.00
59443;BME280;45247;47.466;19.004;2023-04-08T06:06:33;100217.44;;;2.64;100.00
59443;BME280;45247;47.466;19.004;2023-04-08T06:09:04;100215.00;;;2.56;100.00
59443;BME280;45247;47.466;19.004;2023-04-08T06:11:32;100214.00;;;2.63;100.00
59443;BME280;45247;47.466;19.004;2023-04-08T06:14:00;100214.09;;;2.59;100.00
59443;BME280;45247;47.466;19.004;2023-04-08T06:16:29;100212.25;;;2.64;100.00
59443;BME280;45247;47.466;19.004;2023-04-08T06:18:58;100214.09;;;2.59;100.00
59443;BME280;45247;47.466;19.004;2023-04-08T06:21:26;100219.31;;;2.59;100.00
59443;BME280;45247;47.466;19.004;2023-04-08T06:23:54;100220.19;;;2.58;100.00
59443;BME280;45247;47.466;19.004;2023-04-08T06:26:22;100224.47;;;2.62;100.00
59443;BME280;45247;47.466;19.004;2023-04-08T06:28:50;100230.63;;;2.56;100.00
59443;BME280;45247;47.466;19.004;2023-04-08T06:31:19;100224.69;;;2.51;100.00
59443;BME280;45247;47.466;19.004;2023-04-08T06:33:48;100229.84;;;2.53;100.00
59443;BME280;45247;47.466;19.004;2023-04-08T06:36:18;100227.25;;;2.53;100.00
59443;BME280;45247;47.466;19.004;2023-04-08T06:38:46;100234.19;;;2.54;100.00
59443;BME280;45247;47.466;19.004;2023-04-08T06:41:14;100230.63;;;2.56;100.00
59443;BME280;45247;47.466;19.004;2023-04-08T06:43:42;100238.56;;;2.51;100.00
59443;BME280;45247;47.466;19.004;2023-04-08T06:46:11;100235.91;;;2.55;100.00
59443;BME280;45247;47.466;19.004;2023-04-08T06:48:39;100239.41;;;2.52;100.00
59443;BME280;45247;47.466;19.004;2023-04-08T06:51:08;100235.09;;;2.51;100.00
59443;BME280;45247;47.466;19.004;2023-04-08T06:53:37;100239.41;;;2.54;100.00
59443;BME280;45247;47.466;19.004;2023-04-08T06:56:06;100239.34;;;2.55;100.00
59443;BME280;45247;47.466;19.004;2023-04-08T06:58:34;100241.84;;;2.60;100.00
59443;BME280;45247;47.466;19.004;2023-04-08T07:01:02;100248.81;;;2.59;100.00
59443;BME280;45247;47.466;19.004;2023-04-08T07:03:31;100244.47;;;2.60;100.00
59443;BME280;45247;47.466;19.004;2023-04-08T07:06:00;100242.66;;;2.63;100.00
59443;BME280;45247;47.466;19.004;2023-04-08T07:08:30;100251.38;;;2.61;100.00
59443;BME280;45247;47.466;19.004;2023-04-08T07:10:59;100243.56;;;2.61;100.00
59443;BME280;45247;47.466;19.004;2023-04-08T07:13:28;100254.72;;;2.67;100.00
59443;BME280;45247;47.466;19.004;2023-04-08T07:15:56;100245.16;;;2.68;100.00
59443;BME280;45247;47.466;19.004;2023-04-08T07:18:24;100252.03;;;2.72;100.00
59443;BME280;45247;47.466;19.004;2023-04-08T07:20:53;100253.66;;;2.76;100.00
59443;BME280;45247;47.466;19.004;2023-04-08T07:23:22;100257.25;;;2.72;100.00
59443;BME280;45247;47.466;19.004;2023-04-08T07:25:52;100257.19;;;2.75;100.00
59443;BME280;45247;47.466;19.004;2023-04-08T07:28:20;100263.09;;;2.83;100.00
59443;BME280;45247;47.466;19.004;2023-04-08T07:30:48;100254.59;;;2.73;100.00
59443;BME280;45247;47.466;19.004;2023-04-08T07:33:16;100257.25;;;2.72;100.00
59443;BME280;45247;47.466;19.004;2023-04-08T07:35:45;100264.16;;;2.73;100.00
59443;BME280;45247;47.466;19.004;2023-04-08T07:38:14;100267.50;;;2.78;100.00
59443;BME280;45247;47.466;19.004;2023-04-08T07:40:42;100275.38;;;2.76;100.00
59443;BME280;45247;47.466;19.004;2023-04-08T07:43:12;100277.88;;;2.81;100.00
59443;BME280;45247;47.466;19.004;2023-04-08T07:45:40;100283.03;;;2.84;100.00
59443;BME280;45247;47.466;19.004;2023-04-08T07:48:08;100288.25;;;2.84;100.00
59443;BME280;45247;47.466;19.004;2023-04-08T07:50:36;100290.88;;;2.84;100.00
59443;BME280;45247;47.466;19.004;2023-04-08T07:53:24;100290.81;;;2.87;100.00
59443;BME280;45247;47.466;19.004;2023-04-08T07:55:53;100295.06;;;2.91;100.00
59443;BME280;45247;47.466;19.004;2023-04-08T07:58:23;100292.31;;;2.97;100.00
59443;BME280;45247;47.466;19.004;2023-04-08T08:00:52;100291.28;;;3.05;100.00
59443;BME280;45247;47.466;19.004;2023-04-08T08:03:27;100293.78;;;3.09;100.00
59443;BME280;45247;47.466;19.004;2023-04-08T08:05:58;100296.56;;;3.01;100.00
59443;BME280;45247;47.466;19.004;2023-04-08T08:08:27;100292.09;;;3.07;100.00
59443;BME280;45247;47.466;19.004;2023-04-08T08:10:55;100298.97;;;3.11;100.00
59443;BME280;45247;47.466;19.004;2023-04-08T08:13:24;100283.25;;;3.14;100.00
59443;BME280;45247;47.466;19.004;2023-04-08T08:15:52;100293.69;;;3.12;100.00
59443;BME280;45247;47.466;19.004;2023-04-08T08:18:21;100301.56;;;3.11;100.00
59443;BME280;45247;47.466;19.004;2023-04-08T08:20:50;100293.69;;;3.14;100.00
59443;BME280;45247;47.466;19.004;2023-04-08T08:23:18;100304.13;;;3.12;100.00
59443;BME280;45247;47.466;19.004;2023-04-08T08:25:46;100304.91;;;3.16;100.00
59443;BME280;45247;47.466;19.004;2023-04-08T08:28:14;100307.75;;;3.07;100.00
59443;BME280;45247;47.466;19.004;2023-04-08T08:30:44;100311.09;;;3.12;100.00
59443;BME280;45247;47.466;19.004;2023-04-08T08:33:12;100312.22;;;3.01;100.00
59443;BME280;45247;47.466;19.004;2023-04-08T08:35:40;100307.19;;;2.92;100.00
59443;BME280;45247;47.466;19.004;2023-04-08T08:38:08;100317.47;;;2.98;100.00
59443;BME280;45247;47.466;19.004;2023-04-08T08:40:36;100313.81;;;3.07;100.00
59443;BME280;45247;47.466;19.004;2023-04-08T08:43:04;100322.50;;;3.08;100.00
59443;BME280;45247;47.466;19.004;2023-04-08T08:45:33;100323.44;;;3.05;100.00
59443;BME280;45247;47.466;19.004;2023-04-08T08:48:02;100317.22;;;3.11;100.00
59443;BME280;45247;47.466;19.004;2023-04-08T08:50:30;100321.47;;;3.15;100.00
59443;BME280;45247;47.466;19.004;2023-04-08T08:53:00;100326.47;;;3.24;100.00
59443;BME280;45247;47.466;19.004;2023-04-08T08:55:30;100320.16;;;3.34;100.00
59443;BME280;45247;47.466;19.004;2023-04-08T08:58:19;100332.53;;;3.26;100.00
59443;BME280;45247;47.466;19.004;2023-04-08T09:00:48;100328.06;;;3.31;100.00
59443;BME280;45247;47.466;19.004;2023-04-08T09:03:19;100330.59;;;3.34;100.00
59443;BME280;45247;47.466;19.004;2023-04-08T09:05:51;100321.19;;;3.27;100.00
59443;BME280;45247;47.466;19.004;2023-04-08T09:08:27;100341.03;;;3.34;100.00
59443;BME280;45247;47.466;19.004;2023-04-08T09:11:10;100335.81;;;3.34;100.00
59443;BME280;45247;47.466;19.004;2023-04-08T09:13:39;100340.25;;;3.31;100.00
59443;BME280;45247;47.466;19.004;2023-04-08T09:16:09;100345.38;;;3.34;100.00
59443;BME280;45247;47.466;19.004;2023-04-08T09:18:39;100342.66;;;3.38;100.00
59443;BME280;45247;47.466;19.004;2023-04-08T09:21:11;100345.38;;;3.34;100.00
59443;BME280;45247;47.466;19.004;2023-04-08T09:23:41;100345.22;;;3.41;100.00
59443;BME280;45247;47.466;19.004;2023-04-08T09:26:11;100351.09;;;3.49;100.00
59443;BME280;45247;47.466;19.004;2023-04-08T09:28:40;100350.88;;;3.60;100.00
59443;BME280;45247;47.466;19.004;2023-04-08T09:31:19;100348.78;;;3.74;100.00
59443;BME280;45247;47.466;19.004;2023-04-08T09:33:51;100357.22;;;3.84;100.00
59443;BME280;45247;47.466;19.004;2023-04-08T09:36:20;100364.50;;;3.71;100.00
59443;BME280;45247;47.466;19.004;2023-04-08T09:38:53;100349.50;;;3.80;100.00
59443;BME280;45247;47.466;19.004;2023-04-08T09:41:22;100348.00;;;3.71;100.00
59443;BME280;45247;47.466;19.004;2023-04-08T09:43:52;100365.53;;;3.66;100.00
59443;BME280;45247;47.466;19.004;2023-04-08T09:46:26;100352.41;;;3.69;100.00
59443;BME280;45247;47.466;19.004;2023-04-08T09:49:04;100357.28;;;3.81;100.00
59443;BME280;45247;47.466;19.004;2023-04-08T09:51:37;100359.91;;;3.81;100.00
59443;BME280;45247;47.466;19.004;2023-04-08T09:54:12;100362.38;;;3.87;100.00
59443;BME280;45247;47.466;19.004;2023-04-08T09:56:46;100365.66;;;3.95;100.00
59443;BME280;45247;47.466;19.004;2023-04-08T09:59:16;100361.47;;;3.88;100.00
59443;BME280;45247;47.466;19.004;2023-04-08T10:01:51;100368.56;;;3.83;100.00
59443;BME280;45247;47.466;19.004;2023-04-08T10:04:22;100371.31;;;3.79;100.00
59443;BME280;45247;47.466;19.004;2023-04-08T10:06:53;100372.88;;;3.86;100.00
59443;BME280;45247;47.466;19.004;2023-04-08T10:09:24;100379.06;;;3.82;100.00
59443;BME280;45247;47.466;19.004;2023-04-08T10:11:54;100370.88;;;3.95;100.00
59443;BME280;45247;47.466;19.004;2023-04-08T10:14:22;100364.69;;;3.99;100.00
59443;BME280;45247;47.466;19.004;2023-04-08T10:17:24;100363.56;;;4.10;100.00
59443;BME280;45247;47.466;19.004;2023-04-08T10:19:54;100360.75;;;4.17;100.00
59443;BME280;45247;47.466;19.004;2023-04-08T10:22:45;100373.38;;;4.00;100.00
59443;BME280;45247;47.466;19.004;2023-04-08T10:25:31;100372.91;;;3.84;100.00
59443;BME280;45247;47.466;19.004;2023-04-08T10:28:00;100373.31;;;4.03;100.00
59443;BME280;45247;47.466;19.004;2023-04-08T10:30:39;100364.72;;;3.98;100.00
59443;BME280;45247;47.466;19.004;2023-04-08T10:33:12;100363.56;;;4.10;100.00
59443;BME280;45247;47.466;19.004;2023-04-08T10:35:46;100368.84;;;4.07;100.00
59443;BME280;45247;47.466;19.004;2023-04-08T10:38:15;100366.16;;;4.10;100.00
59443;BME280;45247;47.466;19.004;2023-04-08T10:40:44;100360.75;;;4.17;100.00
59443;BME280;45247;47.466;19.004;2023-04-08T10:43:13;100366.59;;;4.27;100.00
59443;BME280;45247;47.466;19.004;2023-04-08T10:45:43;100370.16;;;4.23;100.00
59443;BME280;45247;47.466;19.004;2023-04-08T10:48:20;100363.41;;;4.16;100.00
59443;BME280;45247;47.466;19.004;2023-04-08T10:50:56;100365.44;;;4.05;100.00
59443;BME280;45247;47.466;19.004;2023-04-08T10:53:26;100360.13;;;4.08;100.00
59443;BME280;45247;47.466;19.004;2023-04-08T10:56:03;100372.06;;;4.18;100.00
59443;BME280;45247;47.466;19.004;2023-04-08T10:58:32;100362.69;;;4.09;100.00
59443;BME280;45247;47.466;19.004;2023-04-08T11:01:04;100370.22;;;4.21;100.00
59443;BME280;45247;47.466;19.004;2023-04-08T11:03:34;100375.09;;;4.35;100.00
59443;BME280;45247;47.466;19.004;2023-04-08T11:06:05;100372.03;;;4.52;100.00
59443;BME280;45247;47.466;19.004;2023-04-08T11:08:35;100365.03;;;4.52;100.00
59443;BME280;45247;47.466;19.004;2023-04-08T11:11:04;100371.84;;;4.58;100.00
59443;BME280;45247;47.466;19.004;2023-04-08T11:13:35;100366.13;;;4.45;100.00
59443;BME280;45247;47.466;19.004;2023-04-08T11:16:05;100369.47;;;4.50;100.00
59443;BME280;45247;47.466;19.004;2023-04-08T11:18:44;100369.59;;;4.44;100.00
59443;BME280;45247;47.466;19.004;2023-04-08T11:21:15;100372.19;;;4.46;100.00
59443;BME280;45247;47.466;19.004;2023-04-08T11:23:44;100373.00;;;4.48;100.00
59443;BME280;45247;47.466;19.004;2023-04-08T11:26:13;100372.66;;;4.29;100.00
59443;BME280;45247;47.466;19.004;2023-04-08T11:28:42;100371.66;;;4.33;100.00
59443;BME280;45247;47.466;19.004;2023-04-08T11:31:11;100379.22;;;4.44;100.00
59443;BME280;45247;47.466;19.004;2023-04-08T11:33:44;100367.38;;;4.62;100.00
59443;BME280;45247;47.466;19.004;2023-04-08T11:36:16;100373.00;;;4.79;100.00
59443;BME280;45247;47.466;19.004;2023-04-08T11:38:44;100372.13;;;4.80;100.00
59443;BME280;45247;47.466;19.004;2023-04-08T11:41:14;100378.72;;;4.93;100.00
59443;BME280;45247;47.466;19.004;2023-04-08T11:43:55;100373.78;;;4.83;100.00
59443;BME280;45247;47.466;19.004;2023-04-08T11:46:24;100373.00;;;4.79;100.00
59443;BME280;45247;47.466;19.004;2023-04-08T11:49:02;100372.47;;;4.66;100.00
59443;BME280;45247;47.466;19.004;2023-04-08T11:51:33;100375.53;;;4.82;100.00
59443;BME280;45247;47.466;19.004;2023-04-08T11:54:03;100377.75;;;4.96;100.00
59443;BME280;45247;47.466;19.004;2023-04-08T11:56:43;100376.25;;;4.87;100.00
59443;BME280;45247;47.466;19.004;2023-04-08T11:59:12;100377.25;;;4.83;100.00
59443;BME280;45247;47.466;19.004;2023-04-08T12:01:40;100376.47;;;4.80;100.00
59443;BME280;45247;47.466;19.004;2023-04-08T12:04:09;100374.63;;;4.83;100.00
59443;BME280;45247;47.466;19.004;2023-04-08T12:06:39;100372.13;;;4.80;100.00
59443;BME280;45247;47.466;19.004;2023-04-08T12:09:09;100375.72;;;4.76;100.00
59443;BME280;45247;47.466;19.004;2023-04-08T12:11:37;100366.38;;;4.67;100.00
59443;BME280;45247;47.466;19.004;2023-04-08T12:14:05;100367.56;;;4.56;100.00
59443;BME280;45247;47.466;19.004;2023-04-08T12:16:34;100373.59;;;4.58;100.00
59443;BME280;45247;47.466;19.004;2023-04-08T12:19:02;100371.75;;;4.63;100.00
59443;BME280;45247;47.466;19.004;2023-04-08T12:21:30;100377.56;;;4.72;100.00
59443;BME280;45247;47.466;19.004;2023-04-08T12:24:01;100378.22;;;4.79;100.00
59443;BME280;45247;47.466;19.004;2023-04-08T12:26:29;100369.50;;;4.80;100.00
59443;BME280;45247;47.466;19.004;2023-04-08T12:28:57;100367.56;;;4.87;100.00
59443;BME280;45247;47.466;19.004;2023-04-08T12:31:25;100362.09;;;4.94;100.00
59443;BME280;45247;47.466;19.004;2023-04-08T12:33:54;100361.63;;;5.11;100.00
59443;BME280;45247;47.466;19.004;2023-04-08T12:36:23;100368.25;;;5.23;100.00
59443;BME280;45247;47.466;19.004;2023-04-08T12:38:52;100369.16;;;5.50;100.00
59443;BME280;45247;47.466;19.004;2023-04-08T12:41:22;100369.31;;;5.72;100.00
59443;BME280;45247;47.466;19.004;2023-04-08T12:43:53;100363.78;;;5.81;100.00
59443;BME280;45247;47.466;19.004;2023-04-08T12:46:21;100362.69;;;5.88;100.00
59443;BME280;45247;47.466;19.004;2023-04-08T12:48:49;100365.50;;;5.82;100.00
59443;BME280;45247;47.466;19.004;2023-04-08T12:51:30;100372.41;;;5.85;100.00
59443;BME280;45247;47.466;19.004;2023-04-08T12:53:58;100364.34;;;5.91;100.00